Mitsukawa Maru — JD2495 — position and weather

sailwx.info

Track history (hours):
 
Tides and Currents Weather Stations Pressure Air Temp Water Temp Dewpoint Dewpoint Depression Visibility Wind Speed Wind Dir Waves Ship Positions

Mitsukawa Maru

Last reported at 2017-Jul-26 19:15 UTC. Time now 2017-Jul-27 14:55 UTC.
Position N 34°56' E 139°23'.

Length 105 m; draft 6.7 m.

Type: Ship (hazmat cat A). MMSI: 431000326.

Date/timePositionNaut miles runAvg speedWind from/ knotsBaromVisibWave heightAir tempDewpointWater temp
2017-Jul-26 19:15N 34°56' E 139°23'512.5
2017-Jul-26 18:50N 34°59' E 139°29'413.2
2017-Jul-26 18:30N 35°02' E 139°33'714.5
2017-Jul-26 18:00N 35°06' E 139°40'714.5
2017-Jul-26 17:30N 35°12' E 139°45'612.4
2017-Jul-26 17:01N 35°18' E 139°44'713.1
2017-Jul-26 16:31N 35°24' E 139°43'714.8
2017-Jul-26 16:00N 35°29' E 139°50'714.2
2017-Jul-26 15:30N 35°32' E 139°58'713.7
2017-Jul-26 15:00N 35°35' E 140°05'2 0.7
2017-Jul-26 12:45N 35°34' E 140°07'5 0.3
2017-Jul-25 21:49N 35°34' E 140°00'0 0.3
2017-Jul-25 20:06N 35°35' E 140°00'0 0.0
2017-Jul-25 19:41N 35°35' E 140°00'0 0.0
2017-Jul-25 19:30N 35°35' E 140°00'0 0.0
2017-Jul-25 17:20N 35°35' E 140°00'0 0.1
2017-Jul-25 16:33N 35°35' E 140°00'2 4.3
2017-Jul-25 16:10N 35°34' E 139°58'211.7
2017-Jul-25 16:00N 35°33' E 139°57'612.5
2017-Jul-25 15:30N 35°28' E 139°51'612.3
2017-Jul-25 15:01N 35°24' E 139°46'1111.0
2017-Jul-25 14:00N 35°13' E 139°47'612.5
2017-Jul-25 13:29N 35°06' E 139°46'612.0
2017-Jul-25 13:00N 35°02' E 139°41'612.8
2017-Jul-25 12:30N 34°58' E 139°35'  
2017-Jul-22 12:54N 34°49' E 139°13'1312.1
2017-Jul-22 11:52N 34°57' E 139°24'512.7
2017-Jul-22 11:30N 34°60' E 139°29'612.8
2017-Jul-22 11:00N 35°04' E 139°35'612.8
2017-Jul-22 10:30N 35°07' E 139°42'612.3
2017-Jul-22 10:01N 35°12' E 139°46'510.7
2017-Jul-22 09:30N 35°17' E 139°45'510.6
2017-Jul-22 09:00N 35°22' E 139°42'612.1
2017-Jul-22 08:31N 35°27' E 139°47'612.7
2017-Jul-22 08:00N 35°31' E 139°53'612.7
2017-Jul-22 07:30N 35°34' E 140°00'510.6
2017-Jul-22 07:01N 35°35' E 140°07'0 0.4
2017-Jul-22 06:31N 35°35' E 140°07'0 0.0
2017-Jul-22 05:55N 35°35' E 140°07'0 0.0
2017-Jul-22 05:28N 35°35' E 140°07'0 0.0
2017-Jul-22 04:52N 35°35' E 140°07'0 0.0
2017-Jul-22 04:22N 35°35' E 140°07'0 0.0
2017-Jul-22 03:58N 35°35' E 140°07'0 0.0
2017-Jul-22 03:28N 35°35' E 140°07'0 0.0
2017-Jul-22 02:58N 35°35' E 140°07'0 0.0
2017-Jul-22 02:22N 35°35' E 140°07'0 0.0
2017-Jul-22 01:58N 35°35' E 140°07'0 0.0
2017-Jul-22 01:13N 35°35' E 140°07'0 0.0
2017-Jul-22 00:58N 35°35' E 140°07'0 0.0
2017-Jul-21 23:52N 35°35' E 140°07'0 0.0
2017-Jul-21 23:22N 35°35' E 140°07'0 0.0
2017-Jul-21 22:59N 35°35' E 140°07'0 0.8
2017-Jul-21 22:30N 35°35' E 140°06'3 6.4
2017-Jul-21 22:00N 35°35' E 140°03'3 5.6
2017-Jul-21 21:29N 35°34' E 139°59'0 0.1
2017-Jul-21 20:59N 35°34' E 139°59'0 0.1
2017-Jul-21 20:29N 35°34' E 139°59'0 0.0
2017-Jul-21 19:53N 35°34' E 139°59'0 0.0
2017-Jul-21 19:20N 35°34' E 139°59'0 0.0
2017-Jul-21 18:59N 35°34' E 139°59'0 0.0
2017-Jul-21 18:29N 35°34' E 139°59'0 0.0
2017-Jul-21 17:59N 35°34' E 139°59'0 0.1
2017-Jul-21 17:26N 35°34' E 139°59'0 0.1
2017-Jul-21 16:59N 35°34' E 139°59'0 0.1
2017-Jul-21 16:23N 35°34' E 139°59'0 0.1
2017-Jul-21 15:59N 35°34' E 139°59'0 0.0
2017-Jul-21 15:29N 35°34' E 139°59'0 0.0
2017-Jul-21 14:59N 35°34' E 139°59'0 0.0
2017-Jul-21 14:29N 35°34' E 139°59'1 0.7
2017-Jul-21 13:35N 35°34' E 139°59'1 6.9
2017-Jul-21 13:30N 35°33' E 139°58'611.8
2017-Jul-21 13:00N 35°29' E 139°53'612.6
2017-Jul-21 12:30N 35°25' E 139°47'612.2
2017-Jul-21 12:00N 35°19' E 139°44'611.4
2017-Jul-21 11:30N 35°14' E 139°47'612.5
2017-Jul-21 11:00N 35°08' E 139°46'611.9
2017-Jul-21 10:30N 35°03' E 139°43'612.4
2017-Jul-21 10:00N 34°60' E 139°36'713.2
2017-Jul-21 09:30N 34°56' E 139°29'233 5.4
2017-Jul-19 14:42N 34°02' E 134°55'313.6
2017-Jul-19 14:30N 34°04' E 134°55'713.6
2017-Jul-19 14:00N 34°11' E 134°57'714.5
2017-Jul-19 13:30N 34°18' E 134°58'613.0
2017-Jul-19 13:00N 34°24' E 135°01'714.1
2017-Jul-19 12:30N 34°31' E 135°02'611.9
2017-Jul-19 12:01N 34°37' E 135°00'713.6
2017-Jul-19 11:29N 34°35' E 134°52'  
Track history (hours):
 
Tides and Currents Weather Stations Pressure Air Temp Water Temp Dewpoint Dewpoint Depression Visibility Wind Speed Wind Dir Waves Ship Positions

Mitsukawa Maru

Last reported at 2017-Jul-26 19:15 UTC. Time now 2017-Jul-27 14:55 UTC.
Position N 34°56' E 139°23'.

Length 105 m; draft 6.7 m.

Type: Ship (hazmat cat A). MMSI: 431000326.

Date/timePositionNaut miles runAvg speedWind from/ knotsBaromVisibWave heightAir tempDewpointWater temp
2017-Jul-26 19:15N 34°56' E 139°23'512.5
2017-Jul-26 18:50N 34°59' E 139°29'413.2
2017-Jul-26 18:30N 35°02' E 139°33'714.5
2017-Jul-26 18:00N 35°06' E 139°40'714.5
2017-Jul-26 17:30N 35°12' E 139°45'612.4
2017-Jul-26 17:01N 35°18' E 139°44'713.1
2017-Jul-26 16:31N 35°24' E 139°43'714.8
2017-Jul-26 16:00N 35°29' E 139°50'714.2
2017-Jul-26 15:30N 35°32' E 139°58'713.7
2017-Jul-26 15:00N 35°35' E 140°05'2 0.7
2017-Jul-26 12:45N 35°34' E 140°07'5 0.3
2017-Jul-25 21:49N 35°34' E 140°00'0 0.3
2017-Jul-25 20:06N 35°35' E 140°00'0 0.0
2017-Jul-25 19:41N 35°35' E 140°00'0 0.0
2017-Jul-25 19:30N 35°35' E 140°00'0 0.0
2017-Jul-25 17:20N 35°35' E 140°00'0 0.1
2017-Jul-25 16:33N 35°35' E 140°00'2 4.3
2017-Jul-25 16:10N 35°34' E 139°58'211.7
2017-Jul-25 16:00N 35°33' E 139°57'612.5
2017-Jul-25 15:30N 35°28' E 139°51'612.3
2017-Jul-25 15:01N 35°24' E 139°46'1111.0
2017-Jul-25 14:00N 35°13' E 139°47'612.5
2017-Jul-25 13:29N 35°06' E 139°46'612.0
2017-Jul-25 13:00N 35°02' E 139°41'612.8
2017-Jul-25 12:30N 34°58' E 139°35'  
2017-Jul-22 12:54N 34°49' E 139°13'1312.1
2017-Jul-22 11:52N 34°57' E 139°24'512.7
2017-Jul-22 11:30N 34°60' E 139°29'612.8
2017-Jul-22 11:00N 35°04' E 139°35'612.8
2017-Jul-22 10:30N 35°07' E 139°42'612.3
2017-Jul-22 10:01N 35°12' E 139°46'510.7
2017-Jul-22 09:30N 35°17' E 139°45'510.6
2017-Jul-22 09:00N 35°22' E 139°42'612.1
2017-Jul-22 08:31N 35°27' E 139°47'612.7
2017-Jul-22 08:00N 35°31' E 139°53'612.7
2017-Jul-22 07:30N 35°34' E 140°00'510.6
2017-Jul-22 07:01N 35°35' E 140°07'0 0.4
2017-Jul-22 06:31N 35°35' E 140°07'0 0.0
2017-Jul-22 05:55N 35°35' E 140°07'0 0.0
2017-Jul-22 05:28N 35°35' E 140°07'0 0.0
2017-Jul-22 04:52N 35°35' E 140°07'0 0.0
2017-Jul-22 04:22N 35°35' E 140°07'0 0.0
2017-Jul-22 03:58N 35°35' E 140°07'0 0.0
2017-Jul-22 03:28N 35°35' E 140°07'0 0.0
2017-Jul-22 02:58N 35°35' E 140°07'0 0.0
2017-Jul-22 02:22N 35°35' E 140°07'0 0.0
2017-Jul-22 01:58N 35°35' E 140°07'0 0.0
2017-Jul-22 01:13N 35°35' E 140°07'0 0.0
2017-Jul-22 00:58N 35°35' E 140°07'0 0.0
2017-Jul-21 23:52N 35°35' E 140°07'0 0.0
2017-Jul-21 23:22N 35°35' E 140°07'0 0.0
2017-Jul-21 22:59N 35°35' E 140°07'0 0.8
2017-Jul-21 22:30N 35°35' E 140°06'3 6.4
2017-Jul-21 22:00N 35°35' E 140°03'3 5.6
2017-Jul-21 21:29N 35°34' E 139°59'0 0.1
2017-Jul-21 20:59N 35°34' E 139°59'0 0.1
2017-Jul-21 20:29N 35°34' E 139°59'0 0.0
2017-Jul-21 19:53N 35°34' E 139°59'0 0.0
2017-Jul-21 19:20N 35°34' E 139°59'0 0.0
2017-Jul-21 18:59N 35°34' E 139°59'0 0.0
2017-Jul-21 18:29N 35°34' E 139°59'0 0.0
2017-Jul-21 17:59N 35°34' E 139°59'0 0.1
2017-Jul-21 17:26N 35°34' E 139°59'0 0.1
2017-Jul-21 16:59N 35°34' E 139°59'0 0.1
2017-Jul-21 16:23N 35°34' E 139°59'0 0.1
2017-Jul-21 15:59N 35°34' E 139°59'0 0.0
2017-Jul-21 15:29N 35°34' E 139°59'0 0.0
2017-Jul-21 14:59N 35°34' E 139°59'0 0.0
2017-Jul-21 14:29N 35°34' E 139°59'1 0.7
2017-Jul-21 13:35N 35°34' E 139°59'1 6.9
2017-Jul-21 13:30N 35°33' E 139°58'611.8
2017-Jul-21 13:00N 35°29' E 139°53'612.6
2017-Jul-21 12:30N 35°25' E 139°47'612.2
2017-Jul-21 12:00N 35°19' E 139°44'611.4
2017-Jul-21 11:30N 35°14' E 139°47'612.5
2017-Jul-21 11:00N 35°08' E 139°46'611.9
2017-Jul-21 10:30N 35°03' E 139°43'612.4
2017-Jul-21 10:00N 34°60' E 139°36'713.2
2017-Jul-21 09:30N 34°56' E 139°29'233 5.4
2017-Jul-19 14:42N 34°02' E 134°55'313.6
2017-Jul-19 14:30N 34°04' E 134°55'713.6
2017-Jul-19 14:00N 34°11' E 134°57'714.5
2017-Jul-19 13:30N 34°18' E 134°58'613.0
2017-Jul-19 13:00N 34°24' E 135°01'714.1
2017-Jul-19 12:30N 34°31' E 135°02'611.9
2017-Jul-19 12:01N 34°37' E 135°00'713.6
2017-Jul-19 11:29N 34°35' E 134°52'  

Dump ship's entire track history